Time;durP1;ratioP1;P1;durP2;ratioP2;P2;SDS_P1;SDS_P2;PMS_P1;PMS_P2;Temp;Humidity;BMP_temperature;BMP_pressure;BME280_temperature;BME280_humidity;BME280_pressure;Samples;Min_cycle;Max_cycle;Signal;HPM_P1;HPM_P2
2023/03/10 00:01:55;;;;;;;;;;;1.30;99.90;;;;;;5004574;28;1880;-63
2023/03/10 00:57:01;;;;;;;;;;;1.40;99.90;;;;;;5855439;23;2148;-62
2023/03/10 00:59:27;;;;;;;;;;;1.30;99.90;;;;;;4927041;29;1458;-63
2023/03/10 02:09:37;;;;;;;;;;;1.30;99.90;;;;;;5261715;23;1942;-62
2023/03/10 02:12:04;;;;;;;;;;;1.20;99.90;;;;;;4958476;28;1219;-64
2023/03/10 02:14:31;;;;;;;;;;;1.30;99.90;;;;;;4952929;29;1261;-65
2023/03/10 02:20:21;;;;;;;;;;;1.40;99.90;;;;;;5727976;23;1919;-64
2023/03/10 02:23:31;;;;;;;;;;;1.30;99.90;;;;;;4958935;29;920;-65
2023/03/10 02:26:18;;;;;;;;;;;1.30;99.90;;;;;;4960141;28;1047;-64
2023/03/10 02:29:06;;;;;;;;;;;1.40;99.90;;;;;;4951080;29;1130;-64
2023/03/10 02:31:32;;;;;;;;;;;1.30;99.90;;;;;;4953915;29;1083;-62
2023/03/10 02:33:59;;;;;;;;;;;1.40;99.90;;;;;;4936350;29;984;-63
2023/03/10 02:36:25;;;;;;;;;;;1.40;99.90;;;;;;4946627;29;794;-64
2023/03/10 02:38:51;;;;;;;;;;;1.30;99.90;;;;;;4930596;29;1236;-62
2023/03/10 02:41:39;;;;;;;;;;;1.30;99.90;;;;;;4928423;29;1955;-63
2023/03/10 02:44:07;;;;;;;;;;;1.30;99.90;;;;;;4921536;29;1196;-63
2023/03/10 02:46:33;;;;;;;;;;;1.40;99.90;;;;;;4921754;29;920;-63
2023/03/10 02:49:00;;;;;;;;;;;1.30;99.90;;;;;;4930086;29;1039;-63
2023/03/10 02:51:29;;;;;;;;;;;1.30;99.90;;;;;;4926968;29;1059;-64
2023/03/10 02:53:55;;;;;;;;;;;1.30;99.90;;;;;;4930194;29;996;-62
2023/03/10 02:56:22;;;;;;;;;;;1.30;99.90;;;;;;4926902;29;1008;-61
2023/03/10 02:58:48;;;;;;;;;;;1.30;99.90;;;;;;4909435;29;1221;-64
2023/03/10 03:01:14;;;;;;;;;;;1.40;99.90;;;;;;4925414;29;1902;-62
2023/03/10 03:03:40;;;;;;;;;;;1.40;99.90;;;;;;4910033;29;1115;-60
2023/03/10 03:06:07;;;;;;;;;;;1.30;99.90;;;;;;4907861;29;1024;-62
2023/03/10 03:08:33;;;;;;;;;;;1.60;99.90;;;;;;4923522;29;1169;-61
2023/03/10 03:11:02;;;;;;;;;;;1.30;99.90;;;;;;4946787;29;1020;-62
2023/03/10 03:13:28;;;;;;;;;;;1.30;99.90;;;;;;4925588;29;1051;-63
2023/03/10 03:15:54;;;;;;;;;;;1.40;99.90;;;;;;4925841;29;1264;-62
2023/03/10 03:18:20;;;;;;;;;;;1.40;99.90;;;;;;4917084;29;1181;-63
2023/03/10 03:20:46;;;;;;;;;;;1.30;99.90;;;;;;4905655;29;1986;-61
2023/03/10 03:23:13;;;;;;;;;;;1.40;99.90;;;;;;4927489;29;948;-63
2023/03/10 03:25:39;;;;;;;;;;;1.40;99.90;;;;;;4907623;29;1128;-60
2023/03/10 03:28:07;;;;;;;;;;;1.30;99.90;;;;;;4930031;29;1153;-60
2023/03/10 03:30:33;;;;;;;;;;;1.40;99.90;;;;;;4924229;29;1620;-61
2023/03/10 03:33:01;;;;;;;;;;;1.30;99.90;;;;;;4925281;29;1436;-61
2023/03/10 03:35:28;;;;;;;;;;;1.30;99.90;;;;;;4925349;29;1001;-60
2023/03/10 03:37:55;;;;;;;;;;;1.30;99.90;;;;;;4917681;29;2238;-60
2023/03/10 03:40:22;;;;;;;;;;;1.30;99.90;;;;;;4909020;29;1255;-59
2023/03/10 03:42:49;;;;;;;;;;;1.30;99.90;;;;;;4890584;29;1903;-60
2023/03/10 03:45:16;;;;;;;;;;;1.40;99.90;;;;;;4891228;29;1278;-60
2023/03/10 03:47:42;;;;;;;;;;;1.40;99.90;;;;;;4908123;29;1268;-59
2023/03/10 03:50:09;;;;;;;;;;;1.30;99.90;;;;;;4907752;29;1197;-60
2023/03/10 03:52:35;;;;;;;;;;;1.30;99.90;;;;;;4906815;29;1104;-60
2023/03/10 03:55:03;;;;;;;;;;;1.30;99.90;;;;;;4906112;29;1111;-61
2023/03/10 03:57:29;;;;;;;;;;;1.20;99.90;;;;;;4897538;29;1237;-59
2023/03/10 03:59:55;;;;;;;;;;;1.30;99.90;;;;;;4925431;29;1192;-59
2023/03/10 04:02:21;;;;;;;;;;;1.40;99.90;;;;;;4911317;29;1915;-59
2023/03/10 04:04:47;;;;;;;;;;;1.40;99.90;;;;;;4926097;29;1220;-58
2023/03/10 04:07:15;;;;;;;;;;;1.30;99.90;;;;;;4922779;29;1208;-61
2023/03/10 04:09:41;;;;;;;;;;;1.30;99.90;;;;;;4908878;29;1236;-60
2023/03/10 04:12:08;;;;;;;;;;;1.30;99.90;;;;;;4892833;29;1291;-62
2023/03/10 04:14:35;;;;;;;;;;;1.30;99.90;;;;;;4908253;29;1111;-61
2023/03/10 04:17:01;;;;;;;;;;;1.30;99.90;;;;;;4909361;29;1223;-60
2023/03/10 04:19:28;;;;;;;;;;;1.30;99.90;;;;;;4927704;29;1235;-61
2023/03/10 04:21:54;;;;;;;;;;;1.20;99.90;;;;;;4908899;29;1978;-61
2023/03/10 04:24:20;;;;;;;;;;;1.20;99.90;;;;;;4910288;29;1167;-60
2023/03/10 04:26:46;;;;;;;;;;;1.20;99.90;;;;;;4925033;29;1075;-60
2023/03/10 04:29:13;;;;;;;;;;;1.10;99.90;;;;;;4907986;29;1205;-59
2023/03/10 04:31:39;;;;;;;;;;;1.30;99.90;;;;;;4906445;29;1359;-60
2023/03/10 04:34:05;;;;;;;;;;;1.40;99.90;;;;;;4906921;29;1411;-60
2023/03/10 04:36:31;;;;;;;;;;;1.30;99.90;;;;;;4907748;29;1275;-60
2023/03/10 04:38:57;;;;;;;;;;;1.30;99.90;;;;;;4907542;29;1099;-59
2023/03/10 04:41:24;;;;;;;;;;;1.30;99.90;;;;;;4909838;29;1899;-59
2023/03/10 04:43:50;;;;;;;;;;;1.30;99.90;;;;;;4910802;29;1306;-59
2023/03/10 04:46:16;;;;;;;;;;;1.30;99.90;;;;;;4910068;29;1304;-59
2023/03/10 04:48:43;;;;;;;;;;;1.30;99.90;;;;;;4914248;29;1264;-60
2023/03/10 04:51:11;;;;;;;;;;;1.30;99.90;;;;;;4907008;29;1243;-61
2023/03/10 04:53:37;;;;;;;;;;;1.30;99.90;;;;;;4908336;29;1186;-60
2023/03/10 04:56:05;;;;;;;;;;;1.40;99.90;;;;;;4913089;29;1233;-61
2023/03/10 04:58:32;;;;;;;;;;;1.20;99.90;;;;;;4915390;29;1245;-59
2023/03/10 05:00:58;;;;;;;;;;;1.30;99.90;;;;;;4905889;29;1903;-61
2023/03/10 05:03:24;;;;;;;;;;;1.30;99.90;;;;;;4903394;29;1127;-61
2023/03/10 05:05:50;;;;;;;;;;;1.30;99.90;;;;;;4903981;29;1177;-61
2023/03/10 05:08:20;;;;;;;;;;;1.40;99.90;;;;;;4911468;29;1293;-60
2023/03/10 05:10:46;;;;;;;;;;;1.30;99.90;;;;;;4937915;29;777;-61
2023/03/10 05:13:12;;;;;;;;;;;1.30;99.90;;;;;;4937356;29;1454;-61
2023/03/10 05:15:39;;;;;;;;;;;1.20;99.90;;;;;;4942562;29;932;-60
2023/03/10 05:18:06;;;;;;;;;;;1.40;99.90;;;;;;4938536;29;1168;-60
2023/03/10 05:20:32;;;;;;;;;;;1.40;99.90;;;;;;4938073;29;1172;-60
2023/03/10 05:22:58;;;;;;;;;;;1.40;99.90;;;;;;4937676;29;1950;-62
2023/03/10 05:25:25;;;;;;;;;;;1.30;99.90;;;;;;4937980;29;952;-62
2023/03/10 05:27:51;;;;;;;;;;;1.40;99.90;;;;;;4914394;29;1243;-62
2023/03/10 05:30:17;;;;;;;;;;;1.30;99.90;;;;;;4916604;29;1038;-61
2023/03/10 05:32:43;;;;;;;;;;;1.30;99.90;;;;;;4937271;29;1063;-61
2023/03/10 05:35:10;;;;;;;;;;;1.20;99.90;;;;;;4917117;29;1182;-60
2023/03/10 05:37:38;;;;;;;;;;;1.30;99.90;;;;;;4924373;29;1355;-61
2023/03/10 05:40:06;;;;;;;;;;;1.40;99.90;;;;;;4925141;29;1365;-61
2023/03/10 05:42:33;;;;;;;;;;;1.40;99.90;;;;;;4927475;29;1903;-62
2023/03/10 05:44:59;;;;;;;;;;;1.40;99.90;;;;;;4927803;29;1391;-62
2023/03/10 05:47:25;;;;;;;;;;;1.30;99.90;;;;;;4925664;29;1217;-60
2023/03/10 05:49:51;;;;;;;;;;;1.30;99.90;;;;;;4926668;29;1225;-62
2023/03/10 05:52:17;;;;;;;;;;;1.20;99.90;;;;;;4923388;29;1198;-63
2023/03/10 05:54:43;;;;;;;;;;;1.20;99.90;;;;;;4934630;29;1338;-60
2023/03/10 05:57:10;;;;;;;;;;;1.40;99.90;;;;;;4924922;29;1285;-62
2023/03/10 05:59:36;;;;;;;;;;;1.40;99.90;;;;;;4936506;29;983;-61
2023/03/10 06:02:02;;;;;;;;;;;1.30;99.90;;;;;;4936009;29;1972;-61
2023/03/10 06:04:31;;;;;;;;;;;1.30;99.90;;;;;;4936636;29;1016;-60
2023/03/10 06:06:59;;;;;;;;;;;1.50;99.90;;;;;;4936039;29;988;-62
2023/03/10 06:09:26;;;;;;;;;;;1.60;99.90;;;;;;4935561;29;1212;-62
2023/03/10 06:11:52;;;;;;;;;;;1.50;99.90;;;;;;4922925;29;1229;-60
2023/03/10 06:14:18;;;;;;;;;;;1.50;99.90;;;;;;4929668;29;1306;-60
2023/03/10 06:16:50;;;;;;;;;;;1.30;99.90;;;;;;4919204;29;1114;-63
2023/03/10 06:19:16;;;;;;;;;;;1.30;99.90;;;;;;4917478;29;1302;-61
2023/03/10 06:21:43;;;;;;;;;;;1.30;99.90;;;;;;4913329;29;1986;-61
2023/03/10 06:24:09;;;;;;;;;;;1.40;99.90;;;;;;4930641;29;1243;-60
2023/03/10 06:26:36;;;;;;;;;;;1.40;99.90;;;;;;4910637;29;1270;-61
2023/03/10 06:29:02;;;;;;;;;;;1.40;99.90;;;;;;4920164;29;1236;-61
2023/03/10 06:31:28;;;;;;;;;;;1.50;99.90;;;;;;4900417;29;1416;-62
2023/03/10 06:33:55;;;;;;;;;;;1.50;99.90;;;;;;4923192;29;1598;-60
2023/03/10 06:36:22;;;;;;;;;;;1.50;99.90;;;;;;4932789;29;1374;-62
2023/03/10 06:38:48;;;;;;;;;;;1.60;99.90;;;;;;4932272;29;1338;-62
2023/03/10 06:41:15;;;;;;;;;;;1.60;99.90;;;;;;4917422;29;1966;-61
2023/03/10 06:43:41;;;;;;;;;;;1.50;99.90;;;;;;4934923;29;1361;-58
2023/03/10 06:46:09;;;;;;;;;;;1.50;99.90;;;;;;4934705;29;1385;-62
2023/03/10 06:48:35;;;;;;;;;;;1.40;99.90;;;;;;4929403;29;2031;-61
2023/03/10 06:51:04;;;;;;;;;;;1.40;99.90;;;;;;4927394;29;1860;-61
2023/03/10 06:53:30;;;;;;;;;;;1.40;99.90;;;;;;4904581;29;1046;-60
2023/03/10 06:56:07;;;;;;;;;;;1.50;99.90;;;;;;4935095;29;1129;-61
2023/03/10 06:58:34;;;;;;;;;;;1.50;99.90;;;;;;4917690;29;1159;-63
2023/03/10 07:01:01;;;;;;;;;;;1.50;99.90;;;;;;4931094;29;1342;-60
2023/03/10 07:03:27;;;;;;;;;;;1.50;99.90;;;;;;4935505;29;1903;-62
2023/03/10 07:05:54;;;;;;;;;;;1.60;99.90;;;;;;4935473;29;1338;-60
2023/03/10 07:08:21;;;;;;;;;;;1.70;99.90;;;;;;4929277;29;1047;-61
2023/03/10 07:10:47;;;;;;;;;;;1.70;99.90;;;;;;4936039;29;1071;-62
2023/03/10 07:13:14;;;;;;;;;;;1.70;99.90;;;;;;4935935;29;1019;-62
2023/03/10 07:15:41;;;;;;;;;;;1.50;99.90;;;;;;4935941;29;900;-61
2023/03/10 07:18:07;;;;;;;;;;;1.60;99.90;;;;;;4927684;29;1121;-61
2023/03/10 07:20:33;;;;;;;;;;;1.60;99.90;;;;;;4916426;29;1317;-62
2023/03/10 07:22:59;;;;;;;;;;;1.70;99.90;;;;;;4928698;29;1908;-61
2023/03/10 07:25:26;;;;;;;;;;;1.60;99.90;;;;;;4920235;29;1098;-61
2023/03/10 07:27:52;;;;;;;;;;;1.70;99.90;;;;;;4921920;29;1187;-61
2023/03/10 07:30:18;;;;;;;;;;;1.70;99.90;;;;;;4935772;29;1044;-62
2023/03/10 07:32:44;;;;;;;;;;;1.60;99.90;;;;;;4937233;29;853;-61
2023/03/10 07:35:10;;;;;;;;;;;1.60;99.90;;;;;;4939280;29;1064;-62
2023/03/10 07:37:38;;;;;;;;;;;1.60;99.90;;;;;;4935198;29;1164;-62
2023/03/10 07:40:05;;;;;;;;;;;1.70;99.90;;;;;;4920547;29;1071;-61
2023/03/10 07:42:31;;;;;;;;;;;1.60;99.90;;;;;;4920356;29;1910;-62
2023/03/10 07:44:57;;;;;;;;;;;1.60;99.90;;;;;;4903510;29;1051;-63
2023/03/10 07:47:23;;;;;;;;;;;1.70;99.90;;;;;;4920964;29;1145;-61
2023/03/10 07:49:49;;;;;;;;;;;1.60;99.90;;;;;;4939253;29;778;-61
2023/03/10 07:52:17;;;;;;;;;;;1.80;99.90;;;;;;4939211;29;1075;-61
2023/03/10 07:54:43;;;;;;;;;;;1.80;99.90;;;;;;4939123;29;892;-62
2023/03/10 07:57:10;;;;;;;;;;;1.90;99.90;;;;;;4926809;29;1089;-62
2023/03/10 07:59:40;;;;;;;;;;;1.70;99.90;;;;;;4922246;29;1211;-62
2023/03/10 08:02:06;;;;;;;;;;;1.70;99.90;;;;;;4903076;29;1964;-62
2023/03/10 08:04:32;;;;;;;;;;;1.80;99.90;;;;;;4919588;29;1111;-62
2023/03/10 08:07:01;;;;;;;;;;;1.70;99.90;;;;;;4919565;29;1016;-61
2023/03/10 08:09:28;;;;;;;;;;;1.70;99.90;;;;;;4937620;29;1185;-60
2023/03/10 08:11:57;;;;;;;;;;;1.70;99.90;;;;;;4939128;29;1070;-62
2023/03/10 08:14:24;;;;;;;;;;;1.80;99.90;;;;;;4938376;29;1694;-61
2023/03/10 08:16:50;;;;;;;;;;;1.80;99.90;;;;;;4937551;29;1223;-62
2023/03/10 08:19:17;;;;;;;;;;;1.80;99.90;;;;;;4937433;29;1188;-60
2023/03/10 08:21:43;;;;;;;;;;;1.80;99.90;;;;;;4938220;29;1972;-62
2023/03/10 08:24:09;;;;;;;;;;;1.90;99.90;;;;;;4938959;29;1008;-61
2023/03/10 08:26:35;;;;;;;;;;;1.90;99.90;;;;;;4938060;29;900;-61
2023/03/10 08:29:01;;;;;;;;;;;1.90;99.90;;;;;;4924013;29;1121;-61
2023/03/10 08:31:28;;;;;;;;;;;1.80;99.90;;;;;;4919139;29;1270;-60
2023/03/10 08:33:55;;;;;;;;;;;1.80;99.90;;;;;;4919478;29;1035;-61
2023/03/10 08:36:23;;;;;;;;;;;1.80;99.90;;;;;;4919545;29;1079;-62
2023/03/10 08:38:50;;;;;;;;;;;1.80;99.90;;;;;;4931256;29;1192;-63
2023/03/10 08:41:18;;;;;;;;;;;1.90;99.90;;;;;;4938430;29;1004;-62
2023/03/10 08:43:44;;;;;;;;;;;1.90;99.90;;;;;;4937544;29;1981;-63
2023/03/10 08:46:11;;;;;;;;;;;1.80;99.90;;;;;;4938022;29;1000;-62
2023/03/10 08:48:37;;;;;;;;;;;1.90;99.90;;;;;;4933300;29;1698;-60
2023/03/10 08:51:04;;;;;;;;;;;1.90;99.90;;;;;;4937682;29;1307;-62
2023/03/10 08:53:31;;;;;;;;;;;1.90;99.90;;;;;;4937077;29;1260;-61
2023/03/10 08:55:58;;;;;;;;;;;1.90;99.90;;;;;;4935359;29;1113;-62
2023/03/10 08:58:24;;;;;;;;;;;2.00;99.90;;;;;;4921030;29;1746;-62
2023/03/10 09:00:51;;;;;;;;;;;1.90;99.90;;;;;;4918768;29;893;-61
2023/03/10 09:03:17;;;;;;;;;;;1.90;99.90;;;;;;4918790;29;1974;-62
2023/03/10 09:05:43;;;;;;;;;;;1.90;99.90;;;;;;4902141;29;1008;-62
2023/03/10 09:08:10;;;;;;;;;;;1.90;99.90;;;;;;4925426;29;1094;-62
2023/03/10 09:10:36;;;;;;;;;;;2.00;99.90;;;;;;4937689;29;825;-62
2023/03/10 09:13:02;;;;;;;;;;;1.90;99.90;;;;;;4937757;29;1074;-63
2023/03/10 09:15:34;;;;;;;;;;;2.00;99.90;;;;;;4937773;29;1008;-61
2023/03/10 09:18:00;;;;;;;;;;;1.90;99.90;;;;;;4914214;29;1156;-62
2023/03/10 09:20:26;;;;;;;;;;;2.00;99.90;;;;;;4934059;29;1750;-60
2023/03/10 09:22:56;;;;;;;;;;;2.00;99.90;;;;;;4937414;29;1903;-60
2023/03/10 09:25:22;;;;;;;;;;;2.10;99.90;;;;;;4937334;29;1000;-62
2023/03/10 09:27:48;;;;;;;;;;;2.00;99.90;;;;;;4932871;29;1136;-61
2023/03/10 09:30:14;;;;;;;;;;;2.00;99.90;;;;;;4918221;29;798;-61
2023/03/10 09:32:40;;;;;;;;;;;2.10;99.90;;;;;;4918432;29;1004;-63
2023/03/10 09:35:07;;;;;;;;;;;2.10;99.90;;;;;;4918099;29;1020;-59
2023/03/10 09:37:33;;;;;;;;;;;2.10;99.90;;;;;;4919633;29;1157;-60
2023/03/10 09:39:59;;;;;;;;;;;2.10;99.90;;;;;;4920231;29;944;-60
2023/03/10 09:42:32;;;;;;;;;;;2.10;99.90;;;;;;4937119;29;1976;-60
2023/03/10 09:45:08;;;;;;;;;;;1.90;99.90;;;;;;4936969;29;1036;-61
2023/03/10 09:47:34;;;;;;;;;;;2.00;99.90;;;;;;4917580;29;1182;-62
2023/03/10 09:50:19;;;;;;;;;;;2.30;99.90;;;;;;4918043;29;745;-62
2023/03/10 09:52:46;;;;;;;;;;;2.00;99.90;;;;;;4917513;29;1060;-62
2023/03/10 09:55:16;;;;;;;;;;;2.00;99.90;;;;;;4917906;29;921;-62
2023/03/10 09:57:44;;;;;;;;;;;1.90;99.90;;;;;;4930543;29;1302;-62
2023/03/10 10:00:17;;;;;;;;;;;1.90;99.90;;;;;;4918219;29;929;-64
2023/03/10 10:02:45;;;;;;;;;;;2.00;99.90;;;;;;4917901;29;1976;-63
2023/03/10 10:05:14;;;;;;;;;;;2.00;99.90;;;;;;4918039;29;1007;-63
2023/03/10 10:07:42;;;;;;;;;;;1.90;99.90;;;;;;4919990;29;1248;-62
2023/03/10 10:10:17;;;;;;;;;;;1.90;99.90;;;;;;4937310;29;1004;-61
2023/03/10 10:12:45;;;;;;;;;;;1.90;99.90;;;;;;4920445;29;943;-62
2023/03/10 10:15:14;;;;;;;;;;;2.00;99.90;;;;;;4936424;29;865;-61
2023/03/10 10:17:49;;;;;;;;;;;2.00;99.90;;;;;;4934722;29;1713;-63
2023/03/10 10:20:20;;;;;;;;;;;2.00;99.90;;;;;;4921493;29;1442;-63
2023/03/10 10:22:46;;;;;;;;;;;2.10;99.90;;;;;;4898700;29;1907;-61
2023/03/10 10:25:23;;;;;;;;;;;2.00;99.90;;;;;;4898536;29;940;-64
2023/03/10 10:27:53;;;;;;;;;;;2.00;99.90;;;;;;4898781;29;1161;-62
2023/03/10 10:30:30;;;;;;;;;;;1.90;99.90;;;;;;4898518;29;1052;-62
2023/03/10 10:32:58;;;;;;;;;;;1.90;99.90;;;;;;4898653;29;1040;-61
2023/03/10 10:35:25;;;;;;;;;;;1.80;99.90;;;;;;4898579;29;1004;-61
2023/03/10 10:38:04;;;;;;;;;;;1.70;99.90;;;;;;4901942;29;1180;-62
2023/03/10 10:40:32;;;;;;;;;;;1.90;99.90;;;;;;4917100;29;834;-63
2023/03/10 10:43:04;;;;;;;;;;;1.90;99.90;;;;;;4917189;29;1919;-62
2023/03/10 10:45:35;;;;;;;;;;;1.80;99.90;;;;;;4917321;29;1075;-64
2023/03/10 10:48:01;;;;;;;;;;;1.80;99.90;;;;;;4911561;29;1117;-63
2023/03/10 10:50:34;;;;;;;;;;;2.00;99.90;;;;;;4898414;29;1060;-62
2023/03/10 10:53:18;;;;;;;;;;;1.80;99.90;;;;;;4898128;29;1103;-63
2023/03/10 10:55:45;;;;;;;;;;;1.90;99.90;;;;;;4899332;29;1075;-62
2023/03/10 10:58:27;;;;;;;;;;;1.80;99.90;;;;;;4915330;29;1157;-63
2023/03/10 11:00:55;;;;;;;;;;;1.90;99.90;;;;;;4900584;29;1663;-61
2023/03/10 11:03:33;;;;;;;;;;;1.80;99.90;;;;;;4917132;29;1907;-61
2023/03/10 11:05:59;;;;;;;;;;;1.80;99.90;;;;;;4917332;29;956;-59
2023/03/10 11:08:26;;;;;;;;;;;1.90;99.90;;;;;;4902174;29;1181;-62
2023/03/10 11:10:58;;;;;;;;;;;1.80;99.90;;;;;;4921049;29;1000;-62
2023/03/10 11:13:29;;;;;;;;;;;1.70;99.90;;;;;;4921158;29;1036;-62
2023/03/10 11:16:13;;;;;;;;;;;1.80;99.90;;;;;;4921215;29;984;-62
2023/03/10 11:18:54;;;;;;;;;;;1.90;99.90;;;;;;4910814;29;1315;-63
2023/03/10 11:21:24;;;;;;;;;;;1.80;99.90;;;;;;4912311;29;1196;-62
2023/03/10 11:23:53;;;;;;;;;;;1.80;99.90;;;;;;4920840;29;1911;-60
2023/03/10 11:26:25;;;;;;;;;;;1.90;99.90;;;;;;4920099;29;1139;-62
2023/03/10 11:28:55;;;;;;;;;;;2.00;99.90;;;;;;4931961;29;1220;-63
2023/03/10 11:31:24;;;;;;;;;;;1.90;99.90;;;;;;4939554;29;1063;-62
2023/03/10 11:34:03;;;;;;;;;;;2.00;99.90;;;;;;4939314;29;1056;-63
2023/03/10 11:36:35;;;;;;;;;;;2.00;99.90;;;;;;4939136;29;1016;-63
2023/03/10 11:39:08;;;;;;;;;;;1.90;99.90;;;;;;4926493;29;1215;-63
2023/03/10 11:41:36;;;;;;;;;;;1.80;99.90;;;;;;4936033;29;1265;-60
2023/03/10 11:44:25;;;;;;;;;;;1.90;99.90;;;;;;4939374;29;1980;-62
2023/03/10 11:47:00;;;;;;;;;;;2.00;99.90;;;;;;4910713;29;1680;-62
2023/03/10 11:49:29;;;;;;;;;;;1.90;99.90;;;;;;4937113;29;1180;-62
2023/03/10 11:51:57;;;;;;;;;;;1.90;99.90;;;;;;4938477;29;924;-61
2023/03/10 11:54:34;;;;;;;;;;;1.90;99.90;;;;;;4938192;29;928;-62
2023/03/10 11:57:11;;;;;;;;;;;1.90;99.90;;;;;;4926911;29;1046;-62
2023/03/10 11:59:42;;;;;;;;;;;2.10;99.90;;;;;;4920356;29;1149;-59
2023/03/10 12:02:11;;;;;;;;;;;1.90;99.90;;;;;;4920184;29;920;-60
2023/03/10 12:04:46;;;;;;;;;;;1.90;99.90;;;;;;4920329;29;1906;-63
2023/03/10 12:07:20;;;;;;;;;;;2.10;99.90;;;;;;4918663;29;916;-63
2023/03/10 12:09:51;;;;;;;;;;;2.00;99.90;;;;;;4920364;29;1217;-63
2023/03/10 12:12:29;;;;;;;;;;;1.90;99.90;;;;;;4929481;29;1774;-61
2023/03/10 12:14:57;;;;;;;;;;;2.10;99.90;;;;;;4935945;29;1347;-61
2023/03/10 12:17:23;;;;;;;;;;;2.00;99.90;;;;;;4936916;29;1355;-64
2023/03/10 12:20:22;;;;;;;;;;;2.00;99.90;;;;;;4932717;29;1296;-62
2023/03/10 12:22:53;;;;;;;;;;;1.90;99.90;;;;;;4919281;29;1969;-60
2023/03/10 12:25:36;;;;;;;;;;;2.00;99.90;;;;;;4934668;29;1279;-62
2023/03/10 12:28:15;;;;;;;;;;;2.00;99.90;;;;;;4933944;29;1331;-62
2023/03/10 12:31:00;;;;;;;;;;;1.90;99.90;;;;;;4935115;29;1303;-60
2023/03/10 12:33:29;;;;;;;;;;;2.00;99.90;;;;;;4935777;29;1338;-61
2023/03/10 12:36:14;;;;;;;;;;;2.00;99.90;;;;;;4937297;29;1322;-60
2023/03/10 12:38:42;;;;;;;;;;;2.00;99.90;;;;;;4934048;29;1471;-61
2023/03/10 12:41:09;;;;;;;;;;;2.10;99.90;;;;;;4937191;29;1350;-60
2023/03/10 12:43:47;;;;;;;;;;;2.00;99.90;;;;;;4937170;29;1981;-62
2023/03/10 12:46:17;;;;;;;;;;;1.60;99.90;;;;;;4936714;29;1286;-62
2023/03/10 12:48:47;;;;;;;;;;;1.90;99.90;;;;;;4908710;29;1347;-62
2023/03/10 12:51:16;;;;;;;;;;;1.90;99.90;;;;;;4925955;29;1291;-63
2023/03/10 12:53:53;;;;;;;;;;;2.00;99.90;;;;;;4938658;29;1318;-62
2023/03/10 12:56:29;;;;;;;;;;;1.90;99.90;;;;;;4937965;29;1058;-61
2023/03/10 12:59:09;;;;;;;;;;;2.00;99.90;;;;;;4926600;29;1141;-61
2023/03/10 13:01:42;;;;;;;;;;;2.00;99.90;;;;;;4918899;29;1429;-62
2023/03/10 13:04:11;;;;;;;;;;;2.00;99.90;;;;;;4919233;29;1972;-60
2023/03/10 13:06:39;;;;;;;;;;;1.90;99.90;;;;;;4918997;29;1063;-59
2023/03/10 13:09:13;;;;;;;;;;;2.00;99.90;;;;;;4931387;29;1105;-63
2023/03/10 13:12:01;;;;;;;;;;;1.80;99.90;;;;;;4938067;29;1051;-59
2023/03/10 13:14:38;;;;;;;;;;;1.90;99.90;;;;;;4938072;29;980;-58
2023/03/10 13:17:08;;;;;;;;;;;1.80;99.90;;;;;;4937190;29;923;-60
2023/03/10 13:19:35;;;;;;;;;;;1.80;99.90;;;;;;4918830;29;1230;-60
2023/03/10 13:22:03;;;;;;;;;;;1.70;99.90;;;;;;4900016;29;781;-59
2023/03/10 13:24:31;;;;;;;;;;;1.80;99.90;;;;;;4900456;29;2013;-59
2023/03/10 13:27:12;;;;;;;;;;;1.70;99.90;;;;;;4899600;29;753;-60
2023/03/10 13:29:39;;;;;;;;;;;1.70;99.90;;;;;;4900267;29;1110;-59
2023/03/10 13:32:06;;;;;;;;;;;1.70;99.90;;;;;;4899554;29;1071;-61
2023/03/10 13:34:33;;;;;;;;;;;1.50;99.90;;;;;;4899846;29;912;-60
2023/03/10 13:37:06;;;;;;;;;;;1.60;99.90;;;;;;4899077;29;1008;-60
2023/03/10 13:39:32;;;;;;;;;;;1.60;99.90;;;;;;4915508;29;1121;-60
2023/03/10 13:42:00;;;;;;;;;;;1.60;99.90;;;;;;4918615;29;920;-62
2023/03/10 13:44:32;;;;;;;;;;;1.50;99.90;;;;;;4918599;29;1976;-61
2023/03/10 13:47:01;;;;;;;;;;;1.60;99.90;;;;;;4918127;29;841;-63
2023/03/10 13:49:30;;;;;;;;;;;1.60;99.90;;;;;;4903129;29;1133;-60
2023/03/10 13:51:58;;;;;;;;;;;1.70;99.90;;;;;;4900234;29;972;-62
2023/03/10 13:54:28;;;;;;;;;;;1.70;99.90;;;;;;4902301;29;1083;-61
2023/03/10 13:57:01;;;;;;;;;;;1.70;99.90;;;;;;4908808;29;1046;-62
2023/03/10 13:59:30;;;;;;;;;;;1.60;99.90;;;;;;4900291;29;1192;-59
2023/03/10 14:01:57;;;;;;;;;;;1.70;99.90;;;;;;4918145;29;933;-60
2023/03/10 14:04:44;;;;;;;;;;;1.80;99.90;;;;;;4917905;29;1914;-62
2023/03/10 14:07:17;;;;;;;;;;;1.80;99.90;;;;;;4901883;29;2189;-60
2023/03/10 14:09:44;;;;;;;;;;;1.70;99.90;;;;;;4900929;29;1093;-62
2023/03/10 14:12:11;;;;;;;;;;;1.60;99.90;;;;;;4899175;29;1019;-60
2023/03/10 14:14:37;;;;;;;;;;;1.60;99.90;;;;;;4882529;29;771;-62
2023/03/10 14:17:07;;;;;;;;;;;1.50;99.90;;;;;;4898287;29;1055;-63
2023/03/10 14:19:42;;;;;;;;;;;1.60;99.90;;;;;;4913881;29;1057;-62
2023/03/10 14:22:29;;;;;;;;;;;1.60;99.90;;;;;;4901030;29;1020;-60
2023/03/10 14:24:56;;;;;;;;;;;1.70;99.90;;;;;;4917270;29;2322;-62
2023/03/10 14:27:23;;;;;;;;;;;1.50;99.90;;;;;;4917129;29;793;-60
2023/03/10 14:29:51;;;;;;;;;;;1.40;99.90;;;;;;4882874;29;1173;-62
2023/03/10 14:32:17;;;;;;;;;;;1.50;99.90;;;;;;4882092;29;1057;-61
2023/03/10 14:34:44;;;;;;;;;;;1.40;99.90;;;;;;4898698;29;925;-61
2023/03/10 14:37:10;;;;;;;;;;;1.40;99.90;;;;;;4898288;29;1060;-60
2023/03/10 14:39:36;;;;;;;;;;;1.30;99.90;;;;;;4914107;29;1149;-62
2023/03/10 14:42:02;;;;;;;;;;;1.40;99.90;;;;;;4916897;29;971;-60
2023/03/10 14:44:29;;;;;;;;;;;1.30;99.90;;;;;;4917241;29;1915;-60
2023/03/10 14:46:55;;;;;;;;;;;1.20;99.90;;;;;;4917044;29;1040;-58
2023/03/10 14:49:23;;;;;;;;;;;1.20;99.90;;;;;;4916189;29;1138;-59
2023/03/10 14:51:49;;;;;;;;;;;1.20;99.90;;;;;;4900572;29;1280;-62
2023/03/10 14:54:19;;;;;;;;;;;1.10;99.90;;;;;;4917396;29;1012;-62
2023/03/10 14:56:47;;;;;;;;;;;1.20;99.90;;;;;;4916937;29;1055;-62
2023/03/10 14:59:14;;;;;;;;;;;1.30;99.90;;;;;;4887874;29;1127;-62
2023/03/10 15:01:40;;;;;;;;;;;1.30;99.90;;;;;;4898551;29;739;-62
2023/03/10 15:04:16;;;;;;;;;;;1.20;99.90;;;;;;4898527;29;1974;-61
2023/03/10 15:06:44;;;;;;;;;;;1.20;99.90;;;;;;4898445;29;988;-63
2023/03/10 15:09:10;;;;;;;;;;;1.30;99.90;;;;;;4893291;29;1161;-59
2023/03/10 15:11:37;;;;;;;;;;;1.10;99.90;;;;;;4917302;29;823;-60
2023/03/10 15:14:14;;;;;;;;;;;1.20;99.90;;;;;;4917414;29;1045;-59
2023/03/10 15:16:41;;;;;;;;;;;1.10;99.90;;;;;;4916886;29;877;-60
2023/03/10 15:19:11;;;;;;;;;;;1.20;99.90;;;;;;4905177;29;1131;-61
2023/03/10 15:21:37;;;;;;;;;;;1.10;99.90;;;;;;4915061;29;1056;-63
2023/03/10 15:24:06;;;;;;;;;;;1.10;99.90;;;;;;4917082;29;1907;-60
2023/03/10 15:26:32;;;;;;;;;;;1.00;99.90;;;;;;4916844;29;793;-60
2023/03/10 15:28:59;;;;;;;;;;;1.00;99.90;;;;;;4916108;29;1200;-62
2023/03/10 15:31:25;;;;;;;;;;;1.00;99.90;;;;;;4916873;29;1058;-59
2023/03/10 15:33:51;;;;;;;;;;;1.00;99.90;;;;;;4917051;29;916;-60
2023/03/10 15:36:17;;;;;;;;;;;1.00;99.90;;;;;;4916645;29;830;-62
2023/03/10 15:38:43;;;;;;;;;;;1.10;99.90;;;;;;4908156;29;1803;-61
2023/03/10 15:41:11;;;;;;;;;;;1.00;99.90;;;;;;4898423;29;1128;-61
2023/03/10 15:43:38;;;;;;;;;;;0.90;99.90;;;;;;4915757;29;3264;-61
2023/03/10 15:46:05;;;;;;;;;;;0.90;99.90;;;;;;4916362;29;1195;-60
2023/03/10 15:48:32;;;;;;;;;;;0.80;99.90;;;;;;4916075;29;1137;-60
2023/03/10 15:50:59;;;;;;;;;;;0.70;99.90;;;;;;4917140;29;1027;-61
2023/03/10 15:53:25;;;;;;;;;;;0.80;99.90;;;;;;4917809;29;781;-61
2023/03/10 15:55:51;;;;;;;;;;;0.80;99.90;;;;;;4917936;29;1057;-62
2023/03/10 15:58:17;;;;;;;;;;;0.80;99.90;;;;;;4906400;29;1167;-61
2023/03/10 16:00:44;;;;;;;;;;;0.70;99.90;;;;;;4920257;29;1143;-62
2023/03/10 16:03:11;;;;;;;;;;;0.70;99.90;;;;;;4920252;29;1883;-62
2023/03/10 16:05:37;;;;;;;;;;;0.50;99.90;;;;;;4920460;29;837;-61
2023/03/10 16:08:07;;;;;;;;;;;0.40;99.90;;;;;;4916402;29;1151;-60
2023/03/10 16:10:33;;;;;;;;;;;0.50;99.90;;;;;;4901288;29;1024;-61
2023/03/10 16:13:00;;;;;;;;;;;0.50;99.90;;;;;;4909170;29;1232;-62
2023/03/10 16:15:26;;;;;;;;;;;0.40;99.90;;;;;;4919536;29;1238;-63
2023/03/10 16:17:53;;;;;;;;;;;0.50;99.90;;;;;;4917739;29;1617;-62
2023/03/10 16:20:19;;;;;;;;;;;0.30;99.90;;;;;;4924915;29;1350;-62
2023/03/10 16:22:45;;;;;;;;;;;0.40;99.90;;;;;;4935859;29;1672;-62
2023/03/10 16:25:15;;;;;;;;;;;0.50;99.90;;;;;;4932546;29;1972;-64
2023/03/10 16:27:42;;;;;;;;;;;0.40;99.90;;;;;;4911497;29;1254;-63
2023/03/10 16:30:08;;;;;;;;;;;0.50;99.90;;;;;;4903242;29;1300;-63
2023/03/10 16:32:35;;;;;;;;;;;0.50;99.90;;;;;;4903510;29;1306;-62
2023/03/10 16:35:01;;;;;;;;;;;0.50;99.90;;;;;;4904034;29;1118;-63
2023/03/10 16:37:27;;;;;;;;;;;0.40;99.90;;;;;;4903976;29;1436;-64
2023/03/10 16:39:54;;;;;;;;;;;0.40;99.90;;;;;;4920563;29;1200;-62
2023/03/10 16:42:21;;;;;;;;;;;0.50;99.90;;;;;;4922889;29;1232;-62
2023/03/10 16:44:47;;;;;;;;;;;0.70;99.90;;;;;;4938970;29;1962;-63
2023/03/10 16:47:14;;;;;;;;;;;1.20;99.90;;;;;;4938499;29;1058;-62
2023/03/10 16:49:40;;;;;;;;;;;1.10;99.90;;;;;;4907324;29;1128;-63
2023/03/10 16:52:09;;;;;;;;;;;1.40;99.90;;;;;;4889754;29;1021;-60
2023/03/10 16:54:36;;;;;;;;;;;1.50;99.90;;;;;;4921847;29;1081;-60
2023/03/10 16:57:03;;;;;;;;;;;1.50;99.90;;;;;;4934444;29;1054;-62
2023/03/10 16:59:31;;;;;;;;;;;1.60;99.90;;;;;;4944012;29;1101;-64